sensor_id;sensor_type;location;lat;lon;timestamp;P1;durP1;ratioP1;P2;durP2;ratioP2
6852;SDS011;3465;42.144;24.722;2022-12-18T00:01:58;71.27;;;35.20;;
6852;SDS011;3465;42.144;24.722;2022-12-18T00:04:24;70.20;;;33.73;;
6852;SDS011;3465;42.144;24.722;2022-12-18T00:06:51;72.10;;;33.03;;
6852;SDS011;3465;42.144;24.722;2022-12-18T00:09:17;73.77;;;35.10;;
6852;SDS011;3465;42.144;24.722;2022-12-18T00:11:43;67.00;;;35.80;;
6852;SDS011;3465;42.144;24.722;2022-12-18T00:14:09;67.83;;;33.80;;
6852;SDS011;3465;42.144;24.722;2022-12-18T00:16:36;70.43;;;32.40;;
6852;SDS011;3465;42.144;24.722;2022-12-18T00:19:02;70.87;;;32.97;;
6852;SDS011;3465;42.144;24.722;2022-12-18T00:21:29;70.70;;;32.80;;
6852;SDS011;3465;42.144;24.722;2022-12-18T00:23:57;65.73;;;32.07;;
6852;SDS011;3465;42.144;24.722;2022-12-18T00:26:24;68.40;;;32.77;;
6852;SDS011;3465;42.144;24.722;2022-12-18T00:28:54;69.83;;;32.10;;
6852;SDS011;3465;42.144;24.722;2022-12-18T00:31:23;67.97;;;33.13;;
6852;SDS011;3465;42.144;24.722;2022-12-18T00:33:49;65.57;;;32.87;;
6852;SDS011;3465;42.144;24.722;2022-12-18T00:36:25;69.97;;;33.67;;
6852;SDS011;3465;42.144;24.722;2022-12-18T00:38:52;66.27;;;34.00;;
6852;SDS011;3465;42.144;24.722;2022-12-18T00:41:19;66.63;;;33.17;;
6852;SDS011;3465;42.144;24.722;2022-12-18T00:44:04;67.67;;;34.93;;
6852;SDS011;3465;42.144;24.722;2022-12-18T00:46:31;70.80;;;34.97;;
6852;SDS011;3465;42.144;24.722;2022-12-18T00:48:57;66.33;;;33.97;;
6852;SDS011;3465;42.144;24.722;2022-12-18T00:51:23;68.10;;;33.80;;
6852;SDS011;3465;42.144;24.722;2022-12-18T00:53:49;84.57;;;35.27;;
6852;SDS011;3465;42.144;24.722;2022-12-18T00:56:14;75.03;;;34.27;;
6852;SDS011;3465;42.144;24.722;2022-12-18T00:58:40;68.10;;;33.83;;
6852;SDS011;3465;42.144;24.722;2022-12-18T01:01:05;66.17;;;32.83;;
6852;SDS011;3465;42.144;24.722;2022-12-18T01:03:31;63.57;;;32.77;;
6852;SDS011;3465;42.144;24.722;2022-12-18T01:05:57;73.70;;;34.13;;
6852;SDS011;3465;42.144;24.722;2022-12-18T01:08:22;69.50;;;33.00;;
6852;SDS011;3465;42.144;24.722;2022-12-18T01:10:48;69.00;;;31.90;;
6852;SDS011;3465;42.144;24.722;2022-12-18T01:13:14;73.43;;;33.50;;
6852;SDS011;3465;42.144;24.722;2022-12-18T01:15:39;67.60;;;32.77;;
6852;SDS011;3465;42.144;24.722;2022-12-18T01:18:05;66.13;;;33.07;;
6852;SDS011;3465;42.144;24.722;2022-12-18T01:20:31;70.00;;;32.97;;
6852;SDS011;3465;42.144;24.722;2022-12-18T01:22:56;67.33;;;32.10;;
6852;SDS011;3465;42.144;24.722;2022-12-18T01:25:22;68.27;;;32.53;;
6852;SDS011;3465;42.144;24.722;2022-12-18T01:27:47;68.97;;;33.73;;
6852;SDS011;3465;42.144;24.722;2022-12-18T01:30:12;77.10;;;35.13;;
6852;SDS011;3465;42.144;24.722;2022-12-18T01:32:38;70.33;;;35.57;;
6852;SDS011;3465;42.144;24.722;2022-12-18T01:35:04;75.20;;;35.57;;
6852;SDS011;3465;42.144;24.722;2022-12-18T01:37:30;71.87;;;34.63;;
6852;SDS011;3465;42.144;24.722;2022-12-18T01:39:55;71.33;;;35.50;;
6852;SDS011;3465;42.144;24.722;2022-12-18T01:42:21;63.87;;;32.77;;
6852;SDS011;3465;42.144;24.722;2022-12-18T01:44:53;67.07;;;33.83;;
6852;SDS011;3465;42.144;24.722;2022-12-18T01:49:52;64.70;;;33.57;;
6852;SDS011;3465;42.144;24.722;2022-12-18T01:52:18;66.77;;;32.13;;
6852;SDS011;3465;42.144;24.722;2022-12-18T01:54:46;61.57;;;31.77;;
6852;SDS011;3465;42.144;24.722;2022-12-18T01:57:13;62.87;;;31.37;;
6852;SDS011;3465;42.144;24.722;2022-12-18T01:59:39;59.17;;;29.83;;
6852;SDS011;3465;42.144;24.722;2022-12-18T02:02:07;72.00;;;33.00;;
6852;SDS011;3465;42.144;24.722;2022-12-18T02:04:33;60.50;;;30.00;;
6852;SDS011;3465;42.144;24.722;2022-12-18T02:12:53;58.10;;;25.77;;
6852;SDS011;3465;42.144;24.722;2022-12-18T02:18:12;51.13;;;24.60;;
6852;SDS011;3465;42.144;24.722;2022-12-18T02:20:47;46.83;;;23.33;;
6852;SDS011;3465;42.144;24.722;2022-12-18T02:29:08;49.30;;;23.30;;
6852;SDS011;3465;42.144;24.722;2022-12-18T02:31:43;43.93;;;21.53;;
6852;SDS011;3465;42.144;24.722;2022-12-18T02:34:12;46.47;;;22.37;;
6852;SDS011;3465;42.144;24.722;2022-12-18T02:36:40;51.20;;;23.67;;
6852;SDS011;3465;42.144;24.722;2022-12-18T02:39:07;45.70;;;21.37;;
6852;SDS011;3465;42.144;24.722;2022-12-18T02:41:36;47.97;;;22.87;;
6852;SDS011;3465;42.144;24.722;2022-12-18T02:44:09;43.83;;;21.57;;
6852;SDS011;3465;42.144;24.722;2022-12-18T02:46:47;44.33;;;22.23;;
6852;SDS011;3465;42.144;24.722;2022-12-18T02:52:32;47.63;;;20.83;;
6852;SDS011;3465;42.144;24.722;2022-12-18T02:57:43;47.80;;;22.90;;
6852;SDS011;3465;42.144;24.722;2022-12-18T03:08:27;45.57;;;21.27;;
6852;SDS011;3465;42.144;24.722;2022-12-18T03:11:00;45.17;;;20.90;;
6852;SDS011;3465;42.144;24.722;2022-12-18T03:16:16;42.87;;;21.00;;
6852;SDS011;3465;42.144;24.722;2022-12-18T03:18:51;46.27;;;20.47;;
6852;SDS011;3465;42.144;24.722;2022-12-18T03:21:19;44.83;;;21.83;;
6852;SDS011;3465;42.144;24.722;2022-12-18T03:23:48;41.80;;;19.27;;
6852;SDS011;3465;42.144;24.722;2022-12-18T03:26:16;40.47;;;19.77;;
6852;SDS011;3465;42.144;24.722;2022-12-18T03:28:49;36.33;;;18.10;;
6852;SDS011;3465;42.144;24.722;2022-12-18T03:31:18;42.00;;;19.90;;
6852;SDS011;3465;42.144;24.722;2022-12-18T03:33:51;35.33;;;17.80;;
6852;SDS011;3465;42.144;24.722;2022-12-18T03:36:19;36.87;;;18.37;;
6852;SDS011;3465;42.144;24.722;2022-12-18T03:38:44;33.83;;;17.07;;
6852;SDS011;3465;42.144;24.722;2022-12-18T03:43:55;35.57;;;16.80;;
6852;SDS011;3465;42.144;24.722;2022-12-18T03:46:41;30.30;;;15.13;;
6852;SDS011;3465;42.144;24.722;2022-12-18T03:49:26;30.53;;;15.53;;
6852;SDS011;3465;42.144;24.722;2022-12-18T03:52:04;30.93;;;15.43;;
6852;SDS011;3465;42.144;24.722;2022-12-18T03:54:34;31.40;;;16.10;;
6852;SDS011;3465;42.144;24.722;2022-12-18T03:57:04;30.40;;;15.10;;
6852;SDS011;3465;42.144;24.722;2022-12-18T03:59:32;31.60;;;15.50;;
6852;SDS011;3465;42.144;24.722;2022-12-18T04:01:59;32.17;;;15.43;;
6852;SDS011;3465;42.144;24.722;2022-12-18T04:04:27;27.20;;;15.43;;
6852;SDS011;3465;42.144;24.722;2022-12-18T04:06:55;30.70;;;15.20;;
6852;SDS011;3465;42.144;24.722;2022-12-18T04:09:22;27.17;;;14.70;;
6852;SDS011;3465;42.144;24.722;2022-12-18T04:11:48;30.97;;;14.83;;
6852;SDS011;3465;42.144;24.722;2022-12-18T04:14:13;26.17;;;13.97;;
6852;SDS011;3465;42.144;24.722;2022-12-18T04:16:39;23.27;;;13.53;;
6852;SDS011;3465;42.144;24.722;2022-12-18T04:19:04;32.63;;;14.30;;
6852;SDS011;3465;42.144;24.722;2022-12-18T04:21:30;27.10;;;13.97;;
6852;SDS011;3465;42.144;24.722;2022-12-18T04:23:55;28.83;;;15.17;;
6852;SDS011;3465;42.144;24.722;2022-12-18T04:26:21;25.60;;;12.93;;
6852;SDS011;3465;42.144;24.722;2022-12-18T04:28:47;24.77;;;12.87;;
6852;SDS011;3465;42.144;24.722;2022-12-18T04:31:12;24.00;;;11.80;;
6852;SDS011;3465;42.144;24.722;2022-12-18T04:33:38;21.57;;;11.37;;
6852;SDS011;3465;42.144;24.722;2022-12-18T04:36:03;19.03;;;11.00;;
6852;SDS011;3465;42.144;24.722;2022-12-18T04:38:29;18.03;;;10.20;;
6852;SDS011;3465;42.144;24.722;2022-12-18T04:40:55;18.00;;;9.33;;
6852;SDS011;3465;42.144;24.722;2022-12-18T04:43:20;17.30;;;9.20;;
6852;SDS011;3465;42.144;24.722;2022-12-18T04:45:46;17.07;;;9.23;;
6852;SDS011;3465;42.144;24.722;2022-12-18T04:48:11;17.87;;;9.13;;
6852;SDS011;3465;42.144;24.722;2022-12-18T04:50:36;12.93;;;7.70;;
6852;SDS011;3465;42.144;24.722;2022-12-18T04:53:02;14.37;;;8.13;;
6852;SDS011;3465;42.144;24.722;2022-12-18T04:55:27;16.13;;;7.60;;
6852;SDS011;3465;42.144;24.722;2022-12-18T04:57:53;12.67;;;7.20;;
6852;SDS011;3465;42.144;24.722;2022-12-18T05:00:18;11.77;;;6.87;;
6852;SDS011;3465;42.144;24.722;2022-12-18T05:02:44;10.43;;;6.83;;
6852;SDS011;3465;42.144;24.722;2022-12-18T05:05:09;11.27;;;6.60;;
6852;SDS011;3465;42.144;24.722;2022-12-18T05:07:35;11.13;;;6.30;;
6852;SDS011;3465;42.144;24.722;2022-12-18T05:10:01;10.17;;;6.40;;
6852;SDS011;3465;42.144;24.722;2022-12-18T05:12:26;10.63;;;6.40;;
6852;SDS011;3465;42.144;24.722;2022-12-18T05:14:51;11.63;;;6.20;;
6852;SDS011;3465;42.144;24.722;2022-12-18T05:17:17;10.70;;;5.90;;
6852;SDS011;3465;42.144;24.722;2022-12-18T05:19:42;9.77;;;5.47;;
6852;SDS011;3465;42.144;24.722;2022-12-18T05:22:08;12.20;;;6.17;;
6852;SDS011;3465;42.144;24.722;2022-12-18T05:24:34;12.40;;;5.93;;
6852;SDS011;3465;42.144;24.722;2022-12-18T05:26:59;18.67;;;6.67;;
6852;SDS011;3465;42.144;24.722;2022-12-18T05:29:25;12.93;;;6.77;;
6852;SDS011;3465;42.144;24.722;2022-12-18T05:31:50;13.40;;;6.80;;
6852;SDS011;3465;42.144;24.722;2022-12-18T05:34:16;13.80;;;7.10;;
6852;SDS011;3465;42.144;24.722;2022-12-18T05:36:41;16.57;;;6.93;;
6852;SDS011;3465;42.144;24.722;2022-12-18T05:39:07;13.00;;;7.07;;
6852;SDS011;3465;42.144;24.722;2022-12-18T05:41:32;11.67;;;7.10;;
6852;SDS011;3465;42.144;24.722;2022-12-18T05:43:58;10.23;;;6.53;;
6852;SDS011;3465;42.144;24.722;2022-12-18T05:46:24;11.53;;;6.73;;
6852;SDS011;3465;42.144;24.722;2022-12-18T05:48:50;9.67;;;5.87;;
6852;SDS011;3465;42.144;24.722;2022-12-18T05:51:20;12.27;;;6.83;;
6852;SDS011;3465;42.144;24.722;2022-12-18T05:53:47;10.00;;;6.77;;
6852;SDS011;3465;42.144;24.722;2022-12-18T05:56:14;16.00;;;6.60;;
6852;SDS011;3465;42.144;24.722;2022-12-18T05:58:42;9.60;;;6.00;;
6852;SDS011;3465;42.144;24.722;2022-12-18T06:01:09;10.07;;;6.20;;
6852;SDS011;3465;42.144;24.722;2022-12-18T06:03:35;13.20;;;6.50;;
6852;SDS011;3465;42.144;24.722;2022-12-18T06:06:01;10.07;;;6.00;;
6852;SDS011;3465;42.144;24.722;2022-12-18T06:08:26;10.60;;;6.20;;
6852;SDS011;3465;42.144;24.722;2022-12-18T06:10:52;11.90;;;6.43;;
6852;SDS011;3465;42.144;24.722;2022-12-18T06:13:18;11.33;;;6.50;;
6852;SDS011;3465;42.144;24.722;2022-12-18T06:15:44;10.07;;;6.00;;
6852;SDS011;3465;42.144;24.722;2022-12-18T06:18:10;17.30;;;6.73;;
6852;SDS011;3465;42.144;24.722;2022-12-18T06:20:35;11.70;;;6.53;;
6852;SDS011;3465;42.144;24.722;2022-12-18T06:23:02;11.43;;;6.50;;
6852;SDS011;3465;42.144;24.722;2022-12-18T06:25:27;7.90;;;5.47;;
6852;SDS011;3465;42.144;24.722;2022-12-18T06:27:53;12.13;;;5.73;;
6852;SDS011;3465;42.144;24.722;2022-12-18T06:30:18;10.83;;;5.57;;
6852;SDS011;3465;42.144;24.722;2022-12-18T06:32:44;11.60;;;5.40;;
6852;SDS011;3465;42.144;24.722;2022-12-18T06:35:09;9.73;;;5.80;;
6852;SDS011;3465;42.144;24.722;2022-12-18T06:37:35;10.00;;;5.60;;
6852;SDS011;3465;42.144;24.722;2022-12-18T06:40:00;9.17;;;5.70;;
6852;SDS011;3465;42.144;24.722;2022-12-18T06:42:26;8.13;;;5.03;;
6852;SDS011;3465;42.144;24.722;2022-12-18T06:44:51;7.47;;;5.20;;
6852;SDS011;3465;42.144;24.722;2022-12-18T06:47:17;9.67;;;5.33;;
6852;SDS011;3465;42.144;24.722;2022-12-18T06:49:43;10.17;;;5.60;;
6852;SDS011;3465;42.144;24.722;2022-12-18T06:52:08;10.53;;;5.83;;
6852;SDS011;3465;42.144;24.722;2022-12-18T06:54:34;9.93;;;5.57;;
6852;SDS011;3465;42.144;24.722;2022-12-18T06:56:59;12.70;;;6.37;;
6852;SDS011;3465;42.144;24.722;2022-12-18T06:59:24;14.27;;;7.37;;
6852;SDS011;3465;42.144;24.722;2022-12-18T07:01:50;20.07;;;9.33;;
6852;SDS011;3465;42.144;24.722;2022-12-18T07:04:15;14.97;;;7.37;;
6852;SDS011;3465;42.144;24.722;2022-12-18T07:06:41;21.50;;;9.17;;
6852;SDS011;3465;42.144;24.722;2022-12-18T07:09:06;30.73;;;10.90;;
6852;SDS011;3465;42.144;24.722;2022-12-18T07:11:34;17.27;;;8.33;;
6852;SDS011;3465;42.144;24.722;2022-12-18T07:14:00;19.80;;;8.30;;
6852;SDS011;3465;42.144;24.722;2022-12-18T07:16:25;22.67;;;11.63;;
6852;SDS011;3465;42.144;24.722;2022-12-18T07:18:53;26.80;;;13.00;;
6852;SDS011;3465;42.144;24.722;2022-12-18T07:21:20;28.13;;;12.40;;
6852;SDS011;3465;42.144;24.722;2022-12-18T07:23:46;20.87;;;10.33;;
6852;SDS011;3465;42.144;24.722;2022-12-18T07:26:13;20.87;;;9.37;;
6852;SDS011;3465;42.144;24.722;2022-12-18T07:28:40;13.73;;;7.37;;
6852;SDS011;3465;42.144;24.722;2022-12-18T07:31:07;15.00;;;7.90;;
6852;SDS011;3465;42.144;24.722;2022-12-18T07:33:35;12.10;;;6.53;;
6852;SDS011;3465;42.144;24.722;2022-12-18T07:36:01;15.13;;;8.17;;
6852;SDS011;3465;42.144;24.722;2022-12-18T07:38:28;17.37;;;7.77;;
6852;SDS011;3465;42.144;24.722;2022-12-18T07:40:54;22.53;;;8.30;;
6852;SDS011;3465;42.144;24.722;2022-12-18T07:43:19;20.10;;;10.90;;
6852;SDS011;3465;42.144;24.722;2022-12-18T07:45:45;16.30;;;9.23;;
6852;SDS011;3465;42.144;24.722;2022-12-18T07:48:13;17.87;;;10.07;;
6852;SDS011;3465;42.144;24.722;2022-12-18T07:50:39;20.07;;;9.87;;
6852;SDS011;3465;42.144;24.722;2022-12-18T07:53:04;15.67;;;8.97;;
6852;SDS011;3465;42.144;24.722;2022-12-18T07:55:31;18.80;;;8.67;;
6852;SDS011;3465;42.144;24.722;2022-12-18T07:57:56;15.30;;;7.40;;
6852;SDS011;3465;42.144;24.722;2022-12-18T08:00:25;14.83;;;8.33;;
6852;SDS011;3465;42.144;24.722;2022-12-18T08:02:50;16.07;;;7.37;;
6852;SDS011;3465;42.144;24.722;2022-12-18T08:05:16;14.13;;;8.13;;
6852;SDS011;3465;42.144;24.722;2022-12-18T08:07:41;15.13;;;7.53;;
6852;SDS011;3465;42.144;24.722;2022-12-18T08:10:07;19.83;;;10.27;;
6852;SDS011;3465;42.144;24.722;2022-12-18T08:12:32;14.57;;;8.23;;
6852;SDS011;3465;42.144;24.722;2022-12-18T08:14:58;11.63;;;6.30;;
6852;SDS011;3465;42.144;24.722;2022-12-18T08:17:23;14.73;;;8.40;;
6852;SDS011;3465;42.144;24.722;2022-12-18T08:19:49;9.93;;;6.53;;
6852;SDS011;3465;42.144;24.722;2022-12-18T08:22:14;24.93;;;13.30;;
6852;SDS011;3465;42.144;24.722;2022-12-18T08:24:40;12.90;;;6.97;;
6852;SDS011;3465;42.144;24.722;2022-12-18T08:27:05;12.03;;;7.27;;
6852;SDS011;3465;42.144;24.722;2022-12-18T08:29:30;12.37;;;6.83;;
6852;SDS011;3465;42.144;24.722;2022-12-18T08:31:56;14.63;;;7.93;;
6852;SDS011;3465;42.144;24.722;2022-12-18T08:34:22;14.67;;;8.03;;
6852;SDS011;3465;42.144;24.722;2022-12-18T08:36:51;17.47;;;9.67;;
6852;SDS011;3465;42.144;24.722;2022-12-18T08:39:16;17.73;;;9.40;;
6852;SDS011;3465;42.144;24.722;2022-12-18T08:41:41;20.50;;;10.17;;
6852;SDS011;3465;42.144;24.722;2022-12-18T08:44:07;17.00;;;8.47;;
6852;SDS011;3465;42.144;24.722;2022-12-18T08:46:51;11.23;;;6.50;;
6852;SDS011;3465;42.144;24.722;2022-12-18T08:49:17;15.00;;;7.70;;
6852;SDS011;3465;42.144;24.722;2022-12-18T08:51:42;21.73;;;11.83;;
6852;SDS011;3465;42.144;24.722;2022-12-18T08:54:08;14.43;;;8.27;;
6852;SDS011;3465;42.144;24.722;2022-12-18T08:56:37;17.07;;;8.83;;
6852;SDS011;3465;42.144;24.722;2022-12-18T08:59:02;18.70;;;9.63;;
6852;SDS011;3465;42.144;24.722;2022-12-18T09:01:29;16.70;;;8.50;;
6852;SDS011;3465;42.144;24.722;2022-12-18T09:03:54;17.13;;;8.23;;
6852;SDS011;3465;42.144;24.722;2022-12-18T09:06:20;11.03;;;6.53;;
6852;SDS011;3465;42.144;24.722;2022-12-18T09:08:47;13.07;;;7.20;;
6852;SDS011;3465;42.144;24.722;2022-12-18T09:11:13;11.53;;;6.70;;
6852;SDS011;3465;42.144;24.722;2022-12-18T09:13:46;13.43;;;6.60;;
6852;SDS011;3465;42.144;24.722;2022-12-18T09:16:12;12.63;;;6.70;;
6852;SDS011;3465;42.144;24.722;2022-12-18T09:18:37;12.13;;;6.63;;
6852;SDS011;3465;42.144;24.722;2022-12-18T09:21:09;16.30;;;7.57;;
6852;SDS011;3465;42.144;24.722;2022-12-18T09:23:36;14.03;;;6.97;;
6852;SDS011;3465;42.144;24.722;2022-12-18T09:26:01;12.90;;;7.73;;
6852;SDS011;3465;42.144;24.722;2022-12-18T09:28:27;13.37;;;6.97;;
6852;SDS011;3465;42.144;24.722;2022-12-18T09:30:53;15.20;;;7.03;;
6852;SDS011;3465;42.144;24.722;2022-12-18T09:33:18;12.83;;;7.17;;
6852;SDS011;3465;42.144;24.722;2022-12-18T09:35:44;13.10;;;6.70;;
6852;SDS011;3465;42.144;24.722;2022-12-18T09:38:11;14.57;;;7.13;;
6852;SDS011;3465;42.144;24.722;2022-12-18T09:40:42;11.90;;;6.87;;
6852;SDS011;3465;42.144;24.722;2022-12-18T09:43:15;12.17;;;7.00;;
6852;SDS011;3465;42.144;24.722;2022-12-18T09:45:45;11.60;;;7.10;;
6852;SDS011;3465;42.144;24.722;2022-12-18T09:48:23;12.87;;;7.93;;
6852;SDS011;3465;42.144;24.722;2022-12-18T09:50:55;14.60;;;8.17;;
6852;SDS011;3465;42.144;24.722;2022-12-18T09:53:28;22.63;;;12.70;;
6852;SDS011;3465;42.144;24.722;2022-12-18T09:55:58;15.87;;;8.93;;
6852;SDS011;3465;42.144;24.722;2022-12-18T10:00:58;16.00;;;8.37;;
6852;SDS011;3465;42.144;24.722;2022-12-18T10:03:24;17.03;;;8.63;;
6852;SDS011;3465;42.144;24.722;2022-12-18T10:08:41;23.70;;;11.53;;
6852;SDS011;3465;42.144;24.722;2022-12-18T10:11:39;13.43;;;7.40;;
6852;SDS011;3465;42.144;24.722;2022-12-18T10:19:37;17.87;;;7.77;;
6852;SDS011;3465;42.144;24.722;2022-12-18T10:22:30;21.50;;;10.37;;
6852;SDS011;3465;42.144;24.722;2022-12-18T10:27:57;15.70;;;8.40;;
6852;SDS011;3465;42.144;24.722;2022-12-18T10:30:29;17.50;;;7.90;;
6852;SDS011;3465;42.144;24.722;2022-12-18T10:32:54;19.47;;;8.17;;
6852;SDS011;3465;42.144;24.722;2022-12-18T10:35:26;12.13;;;6.87;;
6852;SDS011;3465;42.144;24.722;2022-12-18T10:38:37;24.50;;;10.03;;
6852;SDS011;3465;42.144;24.722;2022-12-18T10:40:47;52.07;;;23.87;;
6852;SDS011;3465;42.144;24.722;2022-12-18T10:43:16;14.03;;;7.33;;
6852;SDS011;3465;42.144;24.722;2022-12-18T10:46:31;18.50;;;7.20;;
6852;SDS011;3465;42.144;24.722;2022-12-18T10:51:03;11.93;;;7.37;;
6852;SDS011;3465;42.144;24.722;2022-12-18T10:53:29;16.20;;;8.27;;
6852;SDS011;3465;42.144;24.722;2022-12-18T10:56:00;15.20;;;7.70;;
6852;SDS011;3465;42.144;24.722;2022-12-18T10:58:29;12.47;;;7.10;;
6852;SDS011;3465;42.144;24.722;2022-12-18T11:01:07;18.50;;;8.93;;
6852;SDS011;3465;42.144;24.722;2022-12-18T11:08:44;16.60;;;7.57;;
6852;SDS011;3465;42.144;24.722;2022-12-18T11:11:23;13.30;;;7.97;;
6852;SDS011;3465;42.144;24.722;2022-12-18T11:16:45;17.20;;;8.67;;
6852;SDS011;3465;42.144;24.722;2022-12-18T11:21:49;24.43;;;13.60;;
6852;SDS011;3465;42.144;24.722;2022-12-18T11:24:27;16.03;;;9.43;;
6852;SDS011;3465;42.144;24.722;2022-12-18T11:27:15;13.17;;;7.33;;
6852;SDS011;3465;42.144;24.722;2022-12-18T11:29:43;14.37;;;7.63;;
6852;SDS011;3465;42.144;24.722;2022-12-18T11:34:41;12.57;;;7.27;;
6852;SDS011;3465;42.144;24.722;2022-12-18T11:37:13;15.80;;;7.60;;
6852;SDS011;3465;42.144;24.722;2022-12-18T11:39:55;12.23;;;7.40;;
6852;SDS011;3465;42.144;24.722;2022-12-18T11:42:36;13.07;;;7.37;;
6852;SDS011;3465;42.144;24.722;2022-12-18T11:50:10;14.50;;;7.73;;
6852;SDS011;3465;42.144;24.722;2022-12-18T11:52:39;15.93;;;9.17;;
6852;SDS011;3465;42.144;24.722;2022-12-18T12:01:55;14.67;;;7.63;;
6852;SDS011;3465;42.144;24.722;2022-12-18T12:28:49;14.13;;;7.80;;
6852;SDS011;3465;42.144;24.722;2022-12-18T12:34:10;16.13;;;9.00;;
6852;SDS011;3465;42.144;24.722;2022-12-18T12:39:27;14.17;;;7.87;;
6852;SDS011;3465;42.144;24.722;2022-12-18T12:41:57;15.27;;;8.10;;
6852;SDS011;3465;42.144;24.722;2022-12-18T12:44:43;13.77;;;7.33;;
6852;SDS011;3465;42.144;24.722;2022-12-18T12:47:33;13.07;;;7.17;;
6852;SDS011;3465;42.144;24.722;2022-12-18T12:50:03;13.93;;;7.40;;
6852;SDS011;3465;42.144;24.722;2022-12-18T12:52:41;11.50;;;6.40;;
6852;SDS011;3465;42.144;24.722;2022-12-18T12:55:16;9.87;;;6.47;;
6852;SDS011;3465;42.144;24.722;2022-12-18T13:00:18;11.20;;;6.60;;
6852;SDS011;3465;42.144;24.722;2022-12-18T13:05:18;12.40;;;7.13;;
6852;SDS011;3465;42.144;24.722;2022-12-18T13:08:11;12.10;;;7.23;;
6852;SDS011;3465;42.144;24.722;2022-12-18T13:10:48;15.60;;;7.70;;
6852;SDS011;3465;42.144;24.722;2022-12-18T13:13:13;14.57;;;7.80;;
6852;SDS011;3465;42.144;24.722;2022-12-18T13:15:47;14.83;;;8.37;;
6852;SDS011;3465;42.144;24.722;2022-12-18T13:18:27;14.53;;;8.60;;
6852;SDS011;3465;42.144;24.722;2022-12-18T13:25:59;16.47;;;8.90;;
6852;SDS011;3465;42.144;24.722;2022-12-18T13:34:18;18.97;;;9.27;;
6852;SDS011;3465;42.144;24.722;2022-12-18T13:36:42;22.17;;;10.73;;
6852;SDS011;3465;42.144;24.722;2022-12-18T13:39:20;19.67;;;9.17;;
6852;SDS011;3465;42.144;24.722;2022-12-18T13:41:52;257.13;;;48.87;;
6852;SDS011;3465;42.144;24.722;2022-12-18T13:44:57;412.13;;;75.20;;
6852;SDS011;3465;42.144;24.722;2022-12-18T13:47:41;72.50;;;20.33;;
6852;SDS011;3465;42.144;24.722;2022-12-18T13:50:09;313.40;;;65.57;;
6852;SDS011;3465;42.144;24.722;2022-12-18T13:52:45;89.13;;;27.87;;
6852;SDS011;3465;42.144;24.722;2022-12-18T13:55:16;81.77;;;35.60;;
6852;SDS011;3465;42.144;24.722;2022-12-18T13:57:44;23.40;;;12.40;;
6852;SDS011;3465;42.144;24.722;2022-12-18T14:02:47;20.60;;;10.90;;
6852;SDS011;3465;42.144;24.722;2022-12-18T14:05:26;19.37;;;9.43;;
6852;SDS011;3465;42.144;24.722;2022-12-18T14:08:10;18.63;;;9.63;;
6852;SDS011;3465;42.144;24.722;2022-12-18T14:10:42;20.43;;;11.03;;
6852;SDS011;3465;42.144;24.722;2022-12-18T14:13:11;16.57;;;8.73;;
6852;SDS011;3465;42.144;24.722;2022-12-18T14:15:45;17.57;;;8.73;;
6852;SDS011;3465;42.144;24.722;2022-12-18T14:20:48;17.60;;;9.40;;
6852;SDS011;3465;42.144;24.722;2022-12-18T14:28:54;27.40;;;14.23;;
6852;SDS011;3465;42.144;24.722;2022-12-18T14:31:26;20.10;;;10.30;;
6852;SDS011;3465;42.144;24.722;2022-12-18T14:33:53;27.93;;;13.77;;
6852;SDS011;3465;42.144;24.722;2022-12-18T14:36:20;26.83;;;13.03;;
6852;SDS011;3465;42.144;24.722;2022-12-18T14:38:51;22.33;;;11.30;;
6852;SDS011;3465;42.144;24.722;2022-12-18T14:41:24;24.73;;;12.73;;
6852;SDS011;3465;42.144;24.722;2022-12-18T14:43:51;18.77;;;10.17;;
6852;SDS011;3465;42.144;24.722;2022-12-18T14:51:50;17.73;;;9.30;;
6852;SDS011;3465;42.144;24.722;2022-12-18T14:54:19;21.87;;;10.87;;
6852;SDS011;3465;42.144;24.722;2022-12-18T14:56:47;24.00;;;13.00;;
6852;SDS011;3465;42.144;24.722;2022-12-18T14:59:16;19.77;;;9.67;;
6852;SDS011;3465;42.144;24.722;2022-12-18T15:01:47;25.57;;;12.23;;
6852;SDS011;3465;42.144;24.722;2022-12-18T15:04:26;16.77;;;9.63;;
6852;SDS011;3465;42.144;24.722;2022-12-18T15:07:16;21.80;;;10.33;;
6852;SDS011;3465;42.144;24.722;2022-12-18T15:10:00;33.37;;;17.63;;
6852;SDS011;3465;42.144;24.722;2022-12-18T15:25:42;21.63;;;11.47;;
6852;SDS011;3465;42.144;24.722;2022-12-18T15:28:26;23.37;;;11.37;;
6852;SDS011;3465;42.144;24.722;2022-12-18T15:33:31;26.90;;;13.23;;
6852;SDS011;3465;42.144;24.722;2022-12-18T15:36:07;27.83;;;13.50;;
6852;SDS011;3465;42.144;24.722;2022-12-18T15:38:35;29.90;;;14.50;;
6852;SDS011;3465;42.144;24.722;2022-12-18T15:41:01;33.20;;;16.23;;
6852;SDS011;3465;42.144;24.722;2022-12-18T15:43:27;33.40;;;16.63;;
6852;SDS011;3465;42.144;24.722;2022-12-18T15:46:06;29.33;;;15.70;;
6852;SDS011;3465;42.144;24.722;2022-12-18T15:48:39;31.73;;;15.37;;
6852;SDS011;3465;42.144;24.722;2022-12-18T15:53:50;27.30;;;15.20;;
6852;SDS011;3465;42.144;24.722;2022-12-18T15:56:19;29.60;;;14.10;;
6852;SDS011;3465;42.144;24.722;2022-12-18T15:59:11;23.47;;;13.20;;
6852;SDS011;3465;42.144;24.722;2022-12-18T16:01:38;23.07;;;12.20;;
6852;SDS011;3465;42.144;24.722;2022-12-18T16:04:04;24.70;;;12.30;;
6852;SDS011;3465;42.144;24.722;2022-12-18T16:06:29;23.70;;;11.40;;
6852;SDS011;3465;42.144;24.722;2022-12-18T16:08:54;32.73;;;13.80;;
6852;SDS011;3465;42.144;24.722;2022-12-18T16:11:27;20.30;;;12.03;;
6852;SDS011;3465;42.144;24.722;2022-12-18T16:14:12;64.07;;;28.63;;
6852;SDS011;3465;42.144;24.722;2022-12-18T16:16:40;24.40;;;12.30;;
6852;SDS011;3465;42.144;24.722;2022-12-18T16:19:06;31.93;;;15.50;;
6852;SDS011;3465;42.144;24.722;2022-12-18T16:21:32;30.20;;;14.50;;
6852;SDS011;3465;42.144;24.722;2022-12-18T16:23:57;32.20;;;15.27;;
6852;SDS011;3465;42.144;24.722;2022-12-18T16:26:23;26.13;;;13.03;;
6852;SDS011;3465;42.144;24.722;2022-12-18T16:28:48;26.47;;;13.80;;
6852;SDS011;3465;42.144;24.722;2022-12-18T16:31:14;26.47;;;13.53;;
6852;SDS011;3465;42.144;24.722;2022-12-18T16:33:39;26.23;;;13.63;;
6852;SDS011;3465;42.144;24.722;2022-12-18T16:36:05;43.30;;;20.50;;
6852;SDS011;3465;42.144;24.722;2022-12-18T16:38:30;37.50;;;19.00;;
6852;SDS011;3465;42.144;24.722;2022-12-18T16:40:56;37.37;;;17.90;;
6852;SDS011;3465;42.144;24.722;2022-12-18T16:43:39;25.27;;;13.83;;
6852;SDS011;3465;42.144;24.722;2022-12-18T16:46:05;24.67;;;14.33;;
6852;SDS011;3465;42.144;24.722;2022-12-18T16:48:33;23.13;;;12.67;;
6852;SDS011;3465;42.144;24.722;2022-12-18T16:51:00;23.93;;;11.97;;
6852;SDS011;3465;42.144;24.722;2022-12-18T16:53:30;33.93;;;16.87;;
6852;SDS011;3465;42.144;24.722;2022-12-18T16:55:57;24.37;;;12.30;;
6852;SDS011;3465;42.144;24.722;2022-12-18T16:58:22;27.00;;;12.93;;
6852;SDS011;3465;42.144;24.722;2022-12-18T17:00:48;26.23;;;13.97;;
6852;SDS011;3465;42.144;24.722;2022-12-18T17:03:13;29.17;;;13.97;;
6852;SDS011;3465;42.144;24.722;2022-12-18T17:05:39;27.50;;;14.23;;
6852;SDS011;3465;42.144;24.722;2022-12-18T17:08:04;52.67;;;20.13;;
6852;SDS011;3465;42.144;24.722;2022-12-18T17:10:30;36.17;;;18.03;;
6852;SDS011;3465;42.144;24.722;2022-12-18T17:12:55;36.37;;;17.57;;
6852;SDS011;3465;42.144;24.722;2022-12-18T17:15:21;48.87;;;20.93;;
6852;SDS011;3465;42.144;24.722;2022-12-18T17:17:46;102.43;;;36.47;;
6852;SDS011;3465;42.144;24.722;2022-12-18T17:20:12;51.87;;;21.60;;
6852;SDS011;3465;42.144;24.722;2022-12-18T17:22:37;73.63;;;32.27;;
6852;SDS011;3465;42.144;24.722;2022-12-18T17:25:02;25.10;;;14.17;;
6852;SDS011;3465;42.144;24.722;2022-12-18T17:27:28;25.47;;;12.63;;
6852;SDS011;3465;42.144;24.722;2022-12-18T17:29:54;28.07;;;14.00;;